Saltar para o conteúdo principal

Lisboa, Relógio

ID 1210580 · 38.7618, -9.1254 mapa

Última leitura · 2026-05-09 18:00 (Europe/Lisbon)

Temperatura
14.4 °C
Humidade
89 %
Pressão
1,007.0 hPa
Precipitação
0.1 mm
Radiação
Velocidade do vento
16.9 km/h
Direcção do vento
SW · Sudoeste

Histórico de 24 horas

Hora (Europe/Lisbon) Temperatura Humidade Pressão Chuva Vento Direcção
2026-05-09 18:00 14.4 °C 89 % 1,007.0 0.1 mm 16.9 km/h SW
2026-05-09 17:00 13.4 °C 88 % 1,006.6 3.7 mm 20.9 km/h SW
2026-05-09 16:00 17.8 °C 67 % 1,005.7 0.0 mm 31.3 km/h SW
2026-05-09 15:00 18.2 °C 67 % 1,005.3 0.0 mm 31.0 km/h SW
2026-05-09 14:00 17.6 °C 66 % 1,005.1 0.0 mm 31.7 km/h SW
2026-05-09 13:00 17.5 °C 65 % 1,004.8 0.0 mm 28.4 km/h SW
2026-05-09 12:00 16.5 °C 70 % 1,004.5 0.0 mm 24.8 km/h SW
2026-05-09 11:00 15.2 °C 80 % 1,003.9 0.0 mm 20.2 km/h SW
2026-05-09 10:00 13.8 °C 92 % 1,003.4 0.0 mm 11.5 km/h S
2026-05-09 09:00 12.8 °C 94 % 1,003.4 0.1 mm 12.6 km/h SE
2026-05-09 08:00 11.7 °C 96 % 1,003.4 0.0 mm 4.7 km/h SE
2026-05-09 07:00 11.5 °C 96 % 1,003.5 1.2 mm 5.4 km/h SW
2026-05-09 06:00 12.7 °C 95 % 1,003.3 4.6 mm 13.0 km/h SE
2026-05-09 05:00 12.3 °C 92 % 1,003.9 0.5 mm 5.4 km/h SW
2026-05-09 04:00 12.1 °C 96 % 1,004.6 0.5 mm 7.6 km/h S
2026-05-09 03:00 11.4 °C 96 % 1,005.3 4.8 mm 14.4 km/h E
2026-05-09 02:00 11.8 °C 89 % 1,006.0 9.5 mm 11.5 km/h SE
2026-05-09 01:00 14.2 °C 77 % 1,006.0 0.0 mm 16.9 km/h S
2026-05-09 00:00 14.6 °C 75 % 1,006.0 0.0 mm 19.4 km/h S
2026-05-08 23:00 14.6 °C 80 % 1,005.9 0.0 mm 23.0 km/h S
2026-05-08 22:00 14.6 °C 82 % 1,005.7 0.2 mm 13.0 km/h SE
2026-05-08 21:00 15.5 °C 74 % 1,006.3 0.0 mm 16.6 km/h SE
2026-05-08 20:00 15.8 °C 69 % 1,006.4 0.0 mm 13.7 km/h S
2026-05-08 19:00 17.3 °C 61 % 1,006.6 0.0 mm 14.0 km/h S